Time;durP1;ratioP1;P1;durP2;ratioP2;P2;SDS_P1;SDS_P2;PMS_P1;PMS_P2;Temp;Humidity;BMP_temperature;BMP_pressure;BME280_temperature;BME280_humidity;BME280_pressure;Samples;Min_cycle;Max_cycle;Signal;HPM_P1;HPM_P2
2021/12/04 00:00:16;;;;;;;5.10;3.43;;;;;;;4.87;55.06;95499.41;5051390;28;20721;-67
2021/12/04 00:02:42;;;;;;;7.60;3.40;;;;;;;5.06;54.46;95498.31;5046918;28;20442;-67
2021/12/04 00:05:09;;;;;;;3.60;3.30;;;;;;;4.74;54.81;95492.91;5041512;28;20440;-67
2021/12/04 00:07:37;;;;;;;6.10;4.20;;;;;;;4.41;55.46;95492.75;5038531;28;20508;-66
2021/12/04 00:10:05;;;;;;;7.70;3.90;;;;;;;4.70;55.10;95472.59;5043253;28;20448;-69
2021/12/04 00:12:32;;;;;;;5.23;3.17;;;;;;;4.58;55.41;95485.88;5048736;28;20442;-66
2021/12/04 00:14:59;;;;;;;5.17;3.60;;;;;;;4.72;55.22;95471.47;5048653;28;20554;-67
2021/12/04 00:17:29;;;;;;;5.23;3.63;;;;;;;4.50;56.16;95466.88;5045320;28;20454;-67
2021/12/04 00:19:59;;;;;;;5.97;4.00;;;;;;;4.70;55.65;95457.03;5064223;28;20416;-69
2021/12/04 00:22:25;;;;;;;4.30;3.67;;;;;;;4.71;55.51;95448.28;5068769;28;20514;-66
2021/12/04 00:24:52;;;;;;;8.27;4.20;;;;;;;4.85;55.41;95452.03;5065173;28;20426;-68
2021/12/04 00:27:22;;;;;;;5.80;4.30;;;;;;;4.92;55.02;95437.44;5056539;28;20483;-68
2021/12/04 00:29:49;;;;;;;5.30;4.00;;;;;;;4.97;55.00;95426.59;5067460;28;20420;-70
2021/12/04 00:32:29;;;;;;;5.13;3.60;;;;;;;4.89;55.62;95435.19;5072740;28;20444;-66
2021/12/04 00:35:11;;;;;;;4.10;3.70;;;;;;;4.87;56.02;95434.53;5071511;28;20423;-66
2021/12/04 00:37:55;;;;;;;3.97;3.57;;;;;;;4.94;55.52;95427.72;5072027;28;20825;-68
2021/12/04 00:49:06;;;;;;;4.50;3.60;;;;;;;4.66;56.08;95428.00;5062617;28;20428;-65
2021/12/04 00:49:08;;;;;;;7.03;3.67;;;;;;;4.82;55.92;95421.19;5064714;28;20416;-68
2021/12/04 00:51:55;;;;;;;5.47;3.70;;;;;;;4.67;57.15;95423.63;5071553;28;20444;-65
2021/12/04 00:54:23;;;;;;;3.40;3.10;;;;;;;4.45;57.74;95418.84;5058867;28;20421;-67
2021/12/04 00:56:50;;;;;;;4.50;3.63;;;;;;;4.80;56.73;95411.00;5065614;28;20972;-66
2021/12/04 00:59:17;;;;;;;4.63;3.83;;;;;;;4.70;57.55;95398.16;5069462;28;20432;-64
2021/12/04 01:01:45;;;;;;;3.97;3.57;;;;;;;4.63;58.37;95391.16;5060074;28;20449;-67
2021/12/04 01:04:21;;;;;;;5.13;3.83;;;;;;;4.76;58.00;95383.72;5076715;28;20479;-68
2021/12/04 01:06:50;;;;;;;5.67;4.07;;;;;;;4.79;57.88;95369.63;5072190;28;20428;-68
2021/12/04 01:09:21;;;;;;;5.47;4.37;;;;;;;4.95;57.79;95367.03;5070277;28;20425;-66
2021/12/04 01:11:49;;;;;;;4.30;3.50;;;;;;;4.91;58.80;95360.56;5055161;28;20444;-66
2021/12/04 01:14:22;;;;;;;6.53;4.37;;;;;;;4.65;59.62;95366.69;5053093;28;20437;-66
2021/12/04 01:16:50;;;;;;;3.80;3.27;;;;;;;4.71;59.39;95360.06;5067617;28;20463;-66
2021/12/04 01:19:19;;;;;;;3.73;3.33;;;;;;;4.71;60.37;95353.06;5071853;28;20575;-68
2021/12/04 01:21:50;;;;;;;4.10;3.50;;;;;;;5.08;59.07;95354.38;5050251;28;20443;-67
2021/12/04 01:24:20;;;;;;;5.30;3.50;;;;;;;4.91;60.45;95344.97;5066840;28;20435;-66
2021/12/04 01:26:48;;;;;;;8.57;3.50;;;;;;;4.81;61.68;95354.69;5073810;28;21004;-68
2021/12/04 01:29:15;;;;;;;4.53;3.53;;;;;;;4.59;64.68;95377.69;5066939;28;20431;-66
2021/12/04 01:31:44;;;;;;;3.10;2.80;;;;;;;4.91;64.83;95378.72;5069997;28;20479;-68
2021/12/04 01:34:11;;;;;;;5.63;3.60;;;;;;;5.03;65.08;95369.66;5068298;28;20433;-70
2021/12/04 01:36:37;;;;;;;5.67;3.83;;;;;;;4.83;65.75;95369.16;5067529;28;20455;-68
2021/12/04 01:39:11;;;;;;;6.00;3.60;;;;;;;4.75;66.72;95364.75;5060535;28;20443;-66
2021/12/04 01:41:38;;;;;;;5.30;3.80;;;;;;;4.48;68.51;95359.84;5065717;28;20972;-67
2021/12/04 01:44:08;;;;;;;7.47;4.53;;;;;;;4.85;67.47;95358.59;5068978;28;20877;-68
2021/12/04 01:46:38;;;;;;;7.87;4.40;;;;;;;4.84;67.43;95349.19;5063978;28;20814;-68
2021/12/04 01:49:05;;;;;;;4.87;4.10;;;;;;;4.55;68.38;95350.44;5058389;28;20432;-67
2021/12/04 01:51:32;;;;;;;6.20;4.47;;;;;;;4.21;70.64;95340.97;5073199;28;20440;-69
2021/12/04 01:53:59;;;;;;;6.77;4.80;;;;;;;4.30;70.40;95337.44;5072483;28;20506;-66
2021/12/04 01:56:34;;;;;;;4.40;4.00;;;;;;;4.49;69.65;95327.75;5070368;28;20432;-67
2021/12/04 01:59:02;;;;;;;4.97;3.93;;;;;;;4.38;70.14;95323.66;5049439;28;20440;-66
2021/12/04 02:01:31;;;;;;;12.47;5.20;;;;;;;4.48;70.47;95324.31;5061550;28;20498;-67
2021/12/04 02:04:00;;;;;;;7.60;4.60;;;;;;;4.61;69.40;95316.09;5073564;28;20470;-67
2021/12/04 02:06:27;;;;;;;5.57;4.27;;;;;;;4.67;69.81;95312.03;5057546;28;20441;-67
2021/12/04 02:08:54;;;;;;;6.80;4.10;;;;;;;4.63;70.15;95295.16;5052196;28;20430;-67
2021/12/04 02:11:20;;;;;;;5.37;4.30;;;;;;;4.82;68.78;95291.41;5061498;28;20445;-68
2021/12/04 02:13:47;;;;;;;10.23;4.60;;;;;;;4.34;70.43;95296.44;5071458;28;20962;-67
2021/12/04 02:16:16;;;;;;;6.57;4.57;;;;;;;4.62;70.02;95291.75;5065783;28;20949;-66
2021/12/04 02:18:45;;;;;;;6.10;4.37;;;;;;;4.63;70.39;95289.97;5073146;28;20834;-66
2021/12/04 02:21:12;;;;;;;6.73;4.57;;;;;;;4.84;69.56;95287.72;5070878;28;20981;-65
2021/12/04 02:23:38;;;;;;;7.33;4.80;;;;;;;4.56;69.50;95285.44;5058722;28;20433;-67
2021/12/04 02:26:05;;;;;;;7.57;4.70;;;;;;;4.42;70.82;95278.28;5067545;28;20751;-67
2021/12/04 02:28:32;;;;;;;7.07;5.40;;;;;;;4.72;70.14;95271.66;5052925;28;20877;-67
2021/12/04 02:30:59;;;;;;;8.53;4.67;;;;;;;4.87;69.29;95268.41;5068089;28;20445;-66
2021/12/04 02:33:29;;;;;;;6.53;4.90;;;;;;;4.78;69.46;95266.78;5073168;28;20432;-67
2021/12/04 02:35:57;;;;;;;5.37;4.50;;;;;;;4.55;70.42;95265.66;5064829;28;20452;-68
2021/12/04 02:38:29;;;;;;;9.90;4.90;;;;;;;4.84;69.67;95266.94;5073434;28;20488;-67
2021/12/04 02:41:00;;;;;;;7.40;4.23;;;;;;;4.87;69.22;95260.59;5070124;28;20504;-67
2021/12/04 02:43:27;;;;;;;6.70;4.17;;;;;;;4.83;69.22;95254.13;5074278;28;20435;-66
2021/12/04 02:45:57;;;;;;;5.13;4.27;;;;;;;4.80;69.56;95254.44;5073843;28;20421;-66
2021/12/04 02:48:23;;;;;;;5.60;4.77;;;;;;;4.83;69.71;95248.91;5070982;28;20917;-66
2021/12/04 02:50:50;;;;;;;8.10;5.00;;;;;;;4.86;70.16;95246.00;5072021;28;20826;-66
2021/12/04 02:53:17;;;;;;;8.07;5.03;;;;;;;5.06;68.94;95239.47;5072923;28;20456;-68
2021/12/04 02:55:44;;;;;;;6.37;5.10;;;;;;;4.94;69.84;95238.19;5072466;28;21170;-67
2021/12/04 02:58:13;;;;;;;5.10;4.60;;;;;;;4.67;70.39;95229.78;5040908;28;20662;-67
2021/12/04 03:00:47;;;;;;;6.97;4.50;;;;;;;4.83;69.47;95222.97;5050747;28;20507;-67
2021/12/04 03:03:14;;;;;;;5.97;4.83;;;;;;;4.83;70.13;95223.78;5045069;28;20466;-68
2021/12/04 03:05:49;;;;;;;5.30;4.17;;;;;;;4.64;70.39;95219.75;5051561;28;21018;-68
2021/12/04 03:08:17;;;;;;;7.07;5.20;;;;;;;4.86;70.05;95209.66;5064544;28;20431;-68
2021/12/04 03:10:44;;;;;;;6.47;4.53;;;;;;;5.07;69.69;95207.34;5065203;28;20457;-66
2021/12/04 03:13:11;;;;;;;8.63;4.43;;;;;;;4.83;70.01;95204.81;5045522;28;20966;-66
2021/12/04 03:15:44;;;;;;;7.33;4.80;;;;;;;4.91;70.40;95197.81;5049516;28;20913;-68
2021/12/04 03:18:11;;;;;;;5.47;3.87;;;;;;;4.88;70.79;95194.75;5056823;28;20460;-67
2021/12/04 03:20:42;;;;;;;6.20;4.10;;;;;;;4.97;70.42;95188.53;5046760;28;21022;-67
2021/12/04 03:23:16;;;;;;;4.47;3.60;;;;;;;5.00;70.02;95183.03;5068831;28;20441;-67
2021/12/04 03:25:46;;;;;;;5.00;3.90;;;;;;;5.00;70.58;95177.84;5072078;28;20425;-66
2021/12/04 03:28:19;;;;;;;4.07;3.67;;;;;;;4.87;70.80;95173.16;5072252;28;20437;-67
2021/12/04 03:30:52;;;;;;;8.83;3.87;;;;;;;4.93;70.54;95161.28;5066135;28;20498;-67
2021/12/04 03:41:17;;;;;;;3.73;3.20;;;;;;;4.72;71.31;95134.09;5071889;28;20445;-66
2021/12/04 03:43:44;;;;;;;7.33;3.80;;;;;;;4.78;71.70;95130.03;5070971;28;20519;-68
2021/12/04 03:46:15;;;;;;;3.53;2.60;;;;;;;4.42;73.84;95123.47;5058665;28;20216;-67
2021/12/04 03:51:09;;;;;;;3.20;2.87;;;;;;;4.66;72.46;95113.22;5072412;28;20916;-66
2021/12/04 03:53:35;;;;;;;3.53;2.50;;;;;;;5.00;72.03;95106.91;5072316;28;20516;-67
2021/12/04 03:56:02;;;;;;;2.93;2.70;;;;;;;4.79;72.73;95102.31;5047756;28;20421;-66
2021/12/04 03:58:29;;;;;;;2.90;2.60;;;;;;;4.80;73.24;95099.53;5065221;28;20450;-67
2021/12/04 04:00:55;;;;;;;3.00;2.40;;;;;;;4.94;72.47;95097.22;5065759;28;20449;-66
2021/12/04 04:03:25;;;;;;;2.60;2.37;;;;;;;4.88;72.57;95089.13;5073785;28;20515;-68
2021/12/04 04:05:51;;;;;;;2.93;2.50;;;;;;;4.63;73.83;95085.81;5036871;28;20524;-67
2021/12/04 04:08:17;;;;;;;2.90;2.10;;;;;;;4.86;73.68;95090.28;5066139;28;20425;-65
2021/12/04 04:10:44;;;;;;;2.90;1.93;;;;;;;4.79;73.87;95082.34;5081310;28;20479;-67
2021/12/04 04:13:12;;;;;;;1.87;1.73;;;;;;;4.87;73.34;95081.50;5074541;28;20427;-67
2021/12/04 04:15:38;;;;;;;2.00;1.80;;;;;;;4.92;73.22;95072.25;5047328;28;20810;-66
2021/12/04 04:18:05;;;;;;;2.13;1.83;;;;;;;4.97;73.26;95060.56;5050681;28;20457;-67
2021/12/04 04:20:31;;;;;;;1.93;1.83;;;;;;;5.08;72.87;95060.97;5058555;28;20456;-66
2021/12/04 04:22:56;;;;;;;1.90;1.60;;;;;;;5.02;73.39;95056.47;5056915;28;20829;-66
2021/12/04 04:25:22;;;;;;;1.70;1.60;;;;;;;4.97;73.48;95050.97;5051242;28;20907;-67
2021/12/04 04:27:48;;;;;;;1.77;1.20;;;;;;;5.05;73.77;95048.31;5050958;28;20183;-66
2021/12/04 04:30:16;;;;;;;1.87;1.50;;;;;;;5.26;73.17;95036.53;5056234;28;20795;-66
2021/12/04 04:32:42;;;;;;;1.80;1.70;;;;;;;5.22;72.71;95038.66;5061467;28;20206;-67
2021/12/04 04:35:11;;;;;;;1.77;1.67;;;;;;;5.35;72.88;95034.69;5057286;28;20432;-66
2021/12/04 04:57:29;;;;;;;1.93;1.30;;;;;;;5.04;74.29;95027.72;5043397;28;20525;-66
2021/12/04 05:02:35;;;;;;;1.40;0.97;;;;;;;5.34;73.87;95010.50;5053516;28;20594;-68
2021/12/04 05:13:03;;;;;;;1.00;0.83;;;;;;;5.63;72.86;94996.00;5054217;28;20425;-66
2021/12/04 05:21:06;;;;;;;1.23;0.97;;;;;;;5.53;74.29;94993.63;5054525;28;20514;-66
2021/12/04 05:23:51;;;;;;;4.70;0.70;;;;;;;5.72;73.55;94978.53;5057695;28;20465;-65
2021/12/04 05:26:27;;;;;;;1.67;0.70;;;;;;;5.87;73.02;94981.16;5046962;28;20468;-65
2021/12/04 05:28:58;;;;;;;0.90;0.60;;;;;;;5.97;72.89;94986.09;5069311;28;20435;-65
2021/12/04 05:31:26;;;;;;;1.10;0.87;;;;;;;5.99;73.11;94976.31;5077508;28;20444;-67
2021/12/04 05:33:53;;;;;;;0.80;0.50;;;;;;;6.03;72.95;94971.63;5065405;28;20442;-66
2021/12/04 05:36:24;;;;;;;1.00;0.70;;;;;;;5.77;73.64;94963.22;5061497;28;20429;-65
2021/12/04 05:38:50;;;;;;;0.90;0.60;;;;;;;5.91;73.92;94976.41;5070535;28;20452;-67
2021/12/04 05:41:17;;;;;;;0.80;0.60;;;;;;;5.80;74.54;94975.84;5056676;28;20934;-68
2021/12/04 05:43:44;;;;;;;3.63;0.70;;;;;;;6.12;73.17;94966.13;5036357;28;20948;-67
2021/12/04 05:46:20;;;;;;;0.80;0.70;;;;;;;5.94;74.07;94965.66;5065291;28;20440;-67
2021/12/04 05:48:52;;;;;;;0.90;0.60;;;;;;;6.09;73.59;94963.91;5069337;28;20428;-67
2021/12/04 05:54:30;;;;;;;1.10;1.00;;;;;;;6.11;73.67;94963.72;5065007;28;20433;-66
2021/12/04 05:56:54;;;;;;;0.90;0.60;;;;;;;5.92;74.17;94945.00;5054220;28;20465;-68
2021/12/04 05:59:21;;;;;;;0.80;0.60;;;;;;;5.89;74.62;94953.19;5053420;28;20509;-67
2021/12/04 06:01:50;;;;;;;3.53;0.70;;;;;;;5.89;75.19;94945.41;5053201;28;20453;-66
2021/12/04 06:04:17;;;;;;;1.10;0.80;;;;;;;6.09;74.28;94953.50;5045285;28;20456;-66
2021/12/04 06:06:45;;;;;;;1.17;0.70;;;;;;;5.63;76.28;94949.22;5052818;28;20441;-66
2021/12/04 06:09:14;;;;;;;0.80;0.60;;;;;;;6.02;74.90;94957.00;5053981;28;20465;-66
2021/12/04 06:11:41;;;;;;;1.03;0.50;;;;;;;6.15;74.54;94955.38;5053889;28;20483;-66
2021/12/04 06:14:07;;;;;;;0.90;0.70;;;;;;;6.32;73.45;94957.81;5057022;28;20429;-67
2021/12/04 06:16:34;;;;;;;0.80;0.60;;;;;;;6.16;74.32;94956.19;5050874;28;20425;-67
2021/12/04 06:24:44;;;;;;;2.80;0.60;;;;;;;6.45;73.38;94952.75;5057276;28;20504;-66
2021/12/04 06:27:10;;;;;;;1.93;0.70;;;;;;;6.36;74.10;94953.03;5073706;28;20478;-67
2021/12/04 06:29:37;;;;;;;3.93;0.83;;;;;;;6.35;74.12;94952.25;5064225;28;20432;-66
2021/12/04 06:32:04;;;;;;;2.30;0.63;;;;;;;6.27;74.64;94957.53;5073451;28;20456;-66
2021/12/04 06:34:31;;;;;;;0.90;0.80;;;;;;;6.34;74.25;94949.81;5073011;28;20440;-65
2021/12/04 06:36:57;;;;;;;2.50;0.80;;;;;;;6.27;74.83;94955.75;5066839;28;20534;-67
2021/12/04 06:39:24;;;;;;;1.20;0.80;;;;;;;6.54;73.88;94956.06;5062494;28;20420;-66
2021/12/04 06:41:51;;;;;;;1.00;0.90;;;;;;;6.44;74.77;94953.75;5055414;28;20444;-67
2021/12/04 06:44:18;;;;;;;0.90;0.80;;;;;;;6.55;73.97;94954.28;5072356;28;20460;-67
2021/12/04 06:46:45;;;;;;;1.43;0.70;;;;;;;6.51;74.43;94946.03;5070415;28;20422;-66
2021/12/04 06:49:23;;;;;;;0.90;0.63;;;;;;;6.48;74.63;94943.78;5072648;28;20515;-66
2021/12/04 06:51:52;;;;;;;1.00;0.60;;;;;;;6.39;75.39;94926.66;5072295;28;20954;-65
2021/12/04 06:54:23;;;;;;;1.00;0.60;;;;;;;6.41;75.39;94928.09;5069031;28;20939;-66
2021/12/04 06:56:49;;;;;;;1.57;0.70;;;;;;;6.48;75.50;94927.38;5072384;28;20431;-66
2021/12/04 06:59:24;;;;;;;0.87;0.70;;;;;;;6.62;74.79;94918.69;5072604;28;20436;-66
2021/12/04 07:01:51;;;;;;;0.80;0.60;;;;;;;6.53;74.98;94925.84;5065012;28;20815;-66
2021/12/04 07:04:18;;;;;;;0.80;0.60;;;;;;;6.69;74.94;94930.00;5045975;28;20513;-67
2021/12/04 07:06:47;;;;;;;0.80;0.60;;;;;;;6.80;74.29;94923.53;5042272;28;20433;-66
2021/12/04 07:09:13;;;;;;;2.07;0.73;;;;;;;6.93;73.55;94929.84;5060811;28;20428;-67
2021/12/04 07:11:40;;;;;;;0.90;0.80;;;;;;;6.59;74.86;94925.09;5071668;28;20531;-68
2021/12/04 07:14:08;;;;;;;1.20;0.70;;;;;;;6.74;74.82;94926.84;5066315;28;20445;-66
2021/12/04 07:16:35;;;;;;;1.10;0.63;;;;;;;6.58;75.34;94928.69;5064555;28;20464;-66
2021/12/04 07:19:01;;;;;;;1.00;0.80;;;;;;;6.78;74.73;94928.09;5071967;28;20413;-66
2021/12/04 07:21:28;;;;;;;0.90;0.70;;;;;;;6.79;75.31;94934.09;5062228;28;20460;-67
2021/12/04 07:23:55;;;;;;;1.00;0.70;;;;;;;6.79;75.09;94934.94;5051811;28;20434;-66
2021/12/04 07:26:21;;;;;;;0.80;0.60;;;;;;;6.97;74.28;94928.47;5050159;28;20429;-65
2021/12/04 07:28:47;;;;;;;0.80;0.60;;;;;;;6.94;74.49;94928.84;5070106;28;20412;-66
2021/12/04 07:31:13;;;;;;;1.20;0.80;;;;;;;7.10;73.68;94936.41;5053455;28;20488;-66
2021/12/04 07:33:40;;;;;;;2.50;1.00;;;;;;;7.01;73.99;94934.94;5066864;28;20247;-67
2021/12/04 07:36:06;;;;;;;1.00;0.70;;;;;;;6.91;74.81;94930.03;5071867;28;20202;-66
2021/12/04 07:38:44;;;;;;;0.83;0.70;;;;;;;6.84;75.03;94926.56;5071194;28;20847;-66
2021/12/04 07:41:17;;;;;;;0.80;0.70;;;;;;;6.97;75.10;94920.66;5047422;28;20444;-66
2021/12/04 07:43:45;;;;;;;1.73;0.70;;;;;;;7.19;74.22;94917.06;5061163;28;20451;-66
2021/12/04 07:46:12;;;;;;;0.80;0.70;;;;;;;7.19;74.24;94908.47;5072427;28;20461;-67
2021/12/04 07:48:38;;;;;;;1.00;0.80;;;;;;;6.89;75.55;94908.56;5060488;28;20429;-66
2021/12/04 07:51:08;;;;;;;1.67;0.90;;;;;;;6.96;75.32;94896.44;5055894;28;20449;-66
2021/12/04 07:53:35;;;;;;;2.20;1.00;;;;;;;7.00;75.75;94896.88;5059709;28;20433;-65
2021/12/04 07:56:07;;;;;;;1.60;0.93;;;;;;;6.78;77.09;94906.47;5054503;28;20511;-66
2021/12/04 07:58:36;;;;;;;0.97;0.80;;;;;;;6.73;77.34;94912.22;5055070;28;20594;-66
2021/12/04 08:01:03;;;;;;;1.30;0.93;;;;;;;6.98;76.35;94919.69;5071478;28;20455;-66
2021/12/04 08:03:30;;;;;;;1.43;0.97;;;;;;;7.08;76.42;94920.16;5072134;28;20424;-66
2021/12/04 08:05:59;;;;;;;3.00;0.80;;;;;;;7.23;75.35;94913.09;5064465;28;20498;-66
2021/12/04 08:08:26;;;;;;;2.00;1.00;;;;;;;7.16;75.81;94912.25;5060940;28;20851;-64
2021/12/04 08:10:56;;;;;;;1.60;1.00;;;;;;;7.35;75.57;94912.59;5071058;28;20942;-69
2021/12/04 08:13:22;;;;;;;3.67;1.20;;;;;;;7.44;75.08;94908.06;5054249;28;20433;-68
2021/12/04 08:15:50;;;;;;;1.77;1.10;;;;;;;7.44;75.25;94908.84;5063118;28;20425;-66
2021/12/04 08:18:16;;;;;;;1.30;0.90;;;;;;;7.52;74.35;94908.72;5071334;28;20452;-67
2021/12/04 08:20:46;;;;;;;1.87;1.17;;;;;;;7.33;75.92;94909.38;5070006;28;20453;-67
2021/12/04 08:23:14;;;;;;;2.13;1.10;;;;;;;7.21;76.47;94909.09;5067727;28;20808;-68
2021/12/04 08:25:40;;;;;;;2.70;1.10;;;;;;;7.43;75.50;94906.44;5054815;28;20436;-66
2021/12/04 08:28:11;;;;;;;5.57;1.30;;;;;;;7.58;75.20;94904.56;5055788;28;20790;-66
2021/12/04 08:30:40;;;;;;;2.33;1.10;;;;;;;7.76;75.19;94904.06;5070862;28;20441;-67
2021/12/04 08:33:12;;;;;;;1.10;1.00;;;;;;;7.67;74.93;94898.19;5071516;28;20435;-66
2021/12/04 08:35:39;;;;;;;1.53;1.23;;;;;;;7.62;74.21;94900.59;5054958;28;20561;-65
2021/12/04 08:38:11;;;;;;;3.13;2.40;;;;;;;7.74;74.65;94898.25;5071146;28;20460;-69
2021/12/04 08:40:40;;;;;;;3.63;1.17;;;;;;;7.73;75.09;94901.06;5056058;28;20557;-68
2021/12/04 08:43:08;;;;;;;5.10;1.27;;;;;;;7.60;75.32;94893.94;5050862;28;20424;-68
2021/12/04 08:45:34;;;;;;;1.57;1.47;;;;;;;7.76;74.38;94896.25;5046457;28;20437;-67
2021/12/04 08:48:01;;;;;;;2.63;1.33;;;;;;;7.93;74.94;94891.53;5070360;28;20424;-68
2021/12/04 08:50:30;;;;;;;2.50;1.03;;;;;;;7.96;74.49;94895.56;5048561;28;20418;-68
2021/12/04 08:52:58;;;;;;;1.30;1.00;;;;;;;7.67;75.19;94892.19;5068856;28;20471;-68
2021/12/04 08:55:27;;;;;;;2.90;1.30;;;;;;;7.76;75.44;94892.81;5067117;28;20450;-68
2021/12/04 08:57:54;;;;;;;1.10;1.00;;;;;;;7.93;74.94;94904.56;5070089;28;20487;-71
2021/12/04 09:00:24;;;;;;;1.20;1.10;;;;;;;7.96;75.21;94900.78;5070918;28;20463;-69
2021/12/04 09:02:51;;;;;;;5.17;3.40;;;;;;;7.93;75.37;94888.13;5071538;28;20425;-70
2021/12/04 09:05:24;;;;;;;1.27;1.13;;;;;;;8.01;75.40;94895.78;5071373;28;20420;-69
2021/12/04 09:07:51;;;;;;;1.70;1.30;;;;;;;8.24;74.20;94892.09;5071114;28;20408;-69
2021/12/04 09:10:19;;;;;;;2.03;1.77;;;;;;;8.22;74.92;94889.69;5070596;28;20803;-70
2021/12/04 09:12:47;;;;;;;2.70;1.97;;;;;;;8.23;74.83;94886.06;5054494;28;20424;-69
2021/12/04 09:15:18;;;;;;;2.27;1.10;;;;;;;7.93;75.30;94885.53;5070997;28;20428;-70
2021/12/04 09:17:44;;;;;;;2.40;1.30;;;;;;;8.07;76.00;94879.34;5070765;28;20828;-69
2021/12/04 09:20:15;;;;;;;0.90;0.80;;;;;;;7.93;76.19;94877.69;5070764;28;20428;-69
2021/12/04 09:22:42;;;;;;;1.97;0.90;;;;;;;8.10;76.59;94886.81;5068115;28;20183;-69
2021/12/04 09:25:15;;;;;;;5.00;1.10;;;;;;;8.37;75.29;94883.53;5068247;28;20463;-67
2021/12/04 10:00:41;;;;;;;1.43;1.10;;;;;;;8.82;75.62;94851.75;5069500;28;20530;-69
2021/12/04 10:03:43;;;;;;;1.80;1.53;;;;;;;8.93;75.32;94842.50;5075758;28;20452;-68
2021/12/04 10:12:10;;;;;;;3.73;1.30;;;;;;;9.53;74.35;94837.25;5057431;28;21041;-67
2021/12/04 10:15:09;;;;;;;3.30;1.30;;;;;;;9.58;73.88;94834.81;5079016;28;20441;-68
2021/12/04 10:17:59;;;;;;;1.60;1.50;;;;;;;9.80;73.76;94811.06;5081730;28;20452;-69
2021/12/04 10:34:24;;;;;;;1.50;1.40;;;;;;;10.27;73.21;94810.88;5073313;28;20455;-70
2021/12/04 10:36:51;;;;;;;3.20;0.87;;;;;;;10.38;72.69;94804.19;5089856;28;20444;-69
2021/12/04 10:39:18;;;;;;;1.07;0.97;;;;;;;9.94;74.19;94796.09;5078198;28;20482;-69
2021/12/04 10:41:48;;;;;;;1.83;0.97;;;;;;;10.11;74.21;94793.81;5074085;28;20448;-69
2021/12/04 10:44:21;;;;;;;1.33;1.20;;;;;;;10.15;73.92;94795.03;5072659;28;20488;-68
2021/12/04 10:47:03;;;;;;;2.80;1.87;;;;;;;10.18;74.10;94780.69;5071321;28;20521;-71
2021/12/04 10:55:20;;;;;;;1.87;1.00;;;;;;;10.37;74.01;94779.00;5071530;28;20454;-69
2021/12/04 11:02:53;;;;;;;2.40;1.10;;;;;;;10.65;73.23;94770.00;5056733;28;21023;-69
2021/12/04 11:19:14;;;;;;;1.47;1.00;;;;;;;11.11;72.15;94737.38;5071763;28;20533;-69
2021/12/04 11:22:08;;;;;;;1.77;1.20;;;;;;;10.85;72.23;94739.19;5070015;28;20955;-68
2021/12/04 11:40:36;;;;;;;1.60;1.30;;;;;;;10.78;72.56;94733.22;5070902;28;20490;-69
2021/12/04 11:43:15;;;;;;;1.87;1.70;;;;;;;10.67;73.02;94733.91;5061337;28;20927;-71
2021/12/04 11:45:59;;;;;;;1.10;1.00;;;;;;;10.75;72.56;94733.66;5070645;28;20448;-69
2021/12/04 11:48:33;;;;;;;1.30;1.17;;;;;;;11.14;71.35;94729.09;5069719;28;20722;-69
2021/12/04 11:51:01;;;;;;;2.43;1.20;;;;;;;11.24;70.86;94727.78;5071969;28;20470;-69
2021/12/04 11:53:31;;;;;;;1.20;0.80;;;;;;;11.17;71.03;94718.19;5059816;28;20419;-67
2021/12/04 11:55:58;;;;;;;1.13;0.90;;;;;;;10.83;71.69;94722.09;5072048;28;20483;-69
2021/12/04 11:58:31;;;;;;;1.57;1.07;;;;;;;11.21;70.59;94714.06;5072995;28;20522;-70
2021/12/04 12:01:19;;;;;;;4.03;2.20;;;;;;;11.45;69.86;94708.19;5071331;28;20448;-68
2021/12/04 12:03:52;;;;;;;1.43;1.33;;;;;;;11.33;69.84;94695.03;5072464;28;20405;-68
2021/12/04 12:06:41;;;;;;;3.10;0.93;;;;;;;11.41;70.15;94696.53;5070975;28;20820;-69
2021/12/04 12:09:15;;;;;;;2.80;1.40;;;;;;;11.40;70.39;94693.13;5070313;28;20408;-69
2021/12/04 12:12:04;;;;;;;4.50;3.27;;;;;;;11.29;70.70;94684.16;5071456;28;20477;-69
2021/12/04 12:14:55;;;;;;;3.27;2.60;;;;;;;11.26;71.22;94665.44;5074122;28;20416;-69
2021/12/04 12:17:37;;;;;;;1.27;1.13;;;;;;;11.22;71.49;94660.63;5052663;28;20817;-70
2021/12/04 12:20:16;;;;;;;1.37;1.20;;;;;;;11.08;72.12;94669.69;5061078;28;20440;-68
2021/12/04 12:25:52;;;;;;;1.13;1.00;;;;;;;11.16;72.28;94658.91;5066191;28;20432;-69
2021/12/04 12:36:29;;;;;;;1.73;1.00;;;;;;;11.08;72.79;94661.81;5013582;28;20531;-68
2021/12/04 12:39:00;;;;;;;2.13;1.20;;;;;;;11.14;72.78;94649.66;5029145;28;20472;-67
2021/12/04 12:41:41;;;;;;;1.40;1.30;;;;;;;11.17;72.69;94663.13;5006179;28;20896;-69
2021/12/04 12:44:14;;;;;;;1.83;1.70;;;;;;;10.87;73.97;94653.34;5021453;28;20419;-70
2021/12/04 12:46:48;;;;;;;2.17;1.97;;;;;;;11.29;73.08;94651.91;5025994;28;20450;-70
2021/12/04 12:49:22;;;;;;;2.50;1.70;;;;;;;11.41;72.46;94647.53;5028663;28;20427;-69
2021/12/04 12:52:11;;;;;;;8.20;4.33;;;;;;;11.14;73.28;94647.84;5028536;28;20538;-69
2021/12/04 12:54:41;;;;;;;1.83;1.30;;;;;;;11.12;73.08;94660.34;5026150;28;21172;-68
2021/12/04 12:57:23;;;;;;;1.70;1.60;;;;;;;10.74;74.55;94645.59;5024986;28;21072;-70
2021/12/04 13:11:46;;;;;;;2.30;1.40;;;;;;;10.67;74.97;94635.19;5074122;28;20509;-69
2021/12/04 13:14:15;;;;;;;1.63;1.30;;;;;;;10.79;75.12;94635.28;5072571;28;20835;-67
2021/12/04 13:16:49;;;;;;;2.00;1.80;;;;;;;10.75;74.92;94634.94;5058961;28;20851;-69
2021/12/04 13:19:19;;;;;;;1.40;1.30;;;;;;;10.74;74.88;94641.19;5074775;28;20405;-69
2021/12/04 13:21:51;;;;;;;2.33;1.53;;;;;;;10.84;74.80;94643.28;5058543;28;20483;-70
2021/12/04 13:24:18;;;;;;;3.90;2.30;;;;;;;10.83;74.43;94652.19;5072275;28;20408;-70
2021/12/04 13:26:52;;;;;;;2.90;2.43;;;;;;;10.99;73.81;94636.91;5074880;28;21089;-70
2021/12/04 13:29:23;;;;;;;1.67;1.57;;;;;;;11.01;73.84;94627.00;5056968;28;20424;-70
2021/12/04 13:31:54;;;;;;;2.37;1.37;;;;;;;11.04;74.15;94626.56;5041282;28;20482;-68
2021/12/04 13:34:29;;;;;;;1.40;1.30;;;;;;;10.96;74.11;94624.25;5062532;28;20426;-69
2021/12/04 13:36:58;;;;;;;5.33;2.10;;;;;;;10.91;73.61;94617.84;5071658;28;20440;-69
2021/12/04 13:39:24;;;;;;;1.77;1.60;;;;;;;10.83;74.19;94630.41;5073183;28;20855;-70
2021/12/04 13:41:52;;;;;;;2.80;1.20;;;;;;;10.75;74.31;94629.69;5063064;28;20449;-68
2021/12/04 13:44:25;;;;;;;3.63;2.23;;;;;;;10.84;74.32;94622.31;5074179;28;20456;-68
2021/12/04 13:46:56;;;;;;;1.13;1.03;;;;;;;10.55;75.34;94621.19;5068309;28;20429;-69
2021/12/04 13:49:30;;;;;;;1.90;1.20;;;;;;;10.66;75.06;94624.94;5068922;28;20443;-68
2021/12/04 13:52:00;;;;;;;1.37;1.27;;;;;;;10.64;75.39;94622.53;5053715;28;20563;-68
2021/12/04 13:54:29;;;;;;;9.17;2.23;;;;;;;10.76;75.11;94633.09;5066777;28;20473;-72
2021/12/04 13:56:56;;;;;;;3.10;1.70;;;;;;;10.93;74.28;94637.78;5072961;28;20447;-70
2021/12/04 13:59:28;;;;;;;2.60;1.20;;;;;;;10.68;75.40;94643.84;5074090;28;20417;-71
2021/12/04 14:01:55;;;;;;;6.10;1.63;;;;;;;10.78;74.83;94638.91;5074487;28;20778;-70
2021/12/04 14:04:23;;;;;;;3.53;1.20;;;;;;;10.44;76.06;94643.66;5072985;28;20420;-70
2021/12/04 14:07:01;;;;;;;1.37;1.10;;;;;;;10.44;76.79;94648.91;5056147;28;20510;-69
2021/12/04 14:09:37;;;;;;;2.17;1.67;;;;;;;10.84;75.15;94643.28;5072305;28;20459;-69
2021/12/04 14:12:04;;;;;;;2.40;1.97;;;;;;;10.50;76.14;94637.56;5074312;28;20451;-70
2021/12/04 14:14:33;;;;;;;2.40;1.70;;;;;;;10.77;75.58;94641.78;5074009;28;20427;-69
2021/12/04 14:17:19;;;;;;;2.03;1.30;;;;;;;10.74;75.89;94643.78;5073870;28;20421;-68
2021/12/04 14:19:46;;;;;;;7.97;4.43;;;;;;;10.88;75.25;94639.22;5073363;28;20519;-69
2021/12/04 14:22:19;;;;;;;1.40;1.30;;;;;;;10.50;76.55;94642.00;5070913;28;20497;-70
2021/12/04 14:24:59;;;;;;;2.03;1.47;;;;;;;10.50;76.50;94634.94;5064927;28;20471;-70
2021/12/04 14:27:28;;;;;;;5.40;1.23;;;;;;;10.65;76.21;94639.03;5048511;28;20501;-71
2021/12/04 14:29:58;;;;;;;1.30;1.13;;;;;;;10.55;76.75;94637.72;5071796;28;20874;-70
2021/12/04 14:32:31;;;;;;;1.87;1.40;;;;;;;10.70;75.90;94642.63;5073302;28;20487;-70
2021/12/04 14:35:00;;;;;;;1.80;1.43;;;;;;;10.67;76.07;94642.25;5057976;28;21007;-68
2021/12/04 14:37:27;;;;;;;4.93;1.90;;;;;;;10.54;76.45;94641.34;5074360;28;20893;-66
2021/12/04 14:39:56;;;;;;;5.23;1.43;;;;;;;10.32;77.33;94647.94;5056451;28;20432;-69
2021/12/04 14:42:29;;;;;;;1.40;1.27;;;;;;;10.51;76.67;94635.75;5075090;28;20444;-69
2021/12/04 14:44:58;;;;;;;1.60;1.50;;;;;;;10.43;77.23;94642.06;5074516;28;20703;-68
2021/12/04 14:47:35;;;;;;;1.73;1.60;;;;;;;10.52;76.83;94645.22;5071623;28;20438;-68
2021/12/04 14:50:04;;;;;;;1.40;1.30;;;;;;;10.49;76.28;94649.03;5057076;28;20504;-69